sensor_id;sensor_type;location;lat;lon;timestamp;temperature;humidity
61386;DHT22;47256;18.904;-99.054;2022-10-18T00:01:06;27.70;90.90
61386;DHT22;47256;18.904;-99.054;2022-10-18T00:03:34;27.70;91.00
61386;DHT22;47256;18.904;-99.054;2022-10-18T00:06:01;27.70;91.10
61386;DHT22;47256;18.904;-99.054;2022-10-18T00:08:30;27.70;91.10
61386;DHT22;47256;18.904;-99.054;2022-10-18T00:10:57;27.70;91.20
61386;DHT22;47256;18.904;-99.054;2022-10-18T00:13:28;27.70;91.50
61386;DHT22;47256;18.904;-99.054;2022-10-18T00:16:00;27.80;91.80
61386;DHT22;47256;18.904;-99.054;2022-10-18T00:18:28;27.80;91.70
61386;DHT22;47256;18.904;-99.054;2022-10-18T00:21:00;27.80;91.80
61386;DHT22;47256;18.904;-99.054;2022-10-18T00:23:30;27.80;91.70
61386;DHT22;47256;18.904;-99.054;2022-10-18T00:28:35;27.80;92.10
61386;DHT22;47256;18.904;-99.054;2022-10-18T00:31:16;27.80;92.20
61386;DHT22;47256;18.904;-99.054;2022-10-18T00:33:45;27.80;92.40
61386;DHT22;47256;18.904;-99.054;2022-10-18T00:36:14;27.70;92.40
61386;DHT22;47256;18.904;-99.054;2022-10-18T00:38:44;27.70;92.50
61386;DHT22;47256;18.904;-99.054;2022-10-18T00:41:15;27.70;92.20
61386;DHT22;47256;18.904;-99.054;2022-10-18T00:43:51;27.70;92.00
61386;DHT22;47256;18.904;-99.054;2022-10-18T00:46:19;27.70;92.00
61386;DHT22;47256;18.904;-99.054;2022-10-18T00:48:49;27.60;92.60
61386;DHT22;47256;18.904;-99.054;2022-10-18T00:51:19;27.60;92.30
61386;DHT22;47256;18.904;-99.054;2022-10-18T00:53:47;27.60;92.20
61386;DHT22;47256;18.904;-99.054;2022-10-18T00:56:15;27.70;92.70
61386;DHT22;47256;18.904;-99.054;2022-10-18T00:58:44;27.60;92.50
61386;DHT22;47256;18.904;-99.054;2022-10-18T01:01:14;27.60;92.70
61386;DHT22;47256;18.904;-99.054;2022-10-18T01:03:42;27.60;92.80
61386;DHT22;47256;18.904;-99.054;2022-10-18T01:06:10;27.60;92.60
61386;DHT22;47256;18.904;-99.054;2022-10-18T01:12:05;27.50;92.50
61386;DHT22;47256;18.904;-99.054;2022-10-18T01:17:19;27.30;92.60
61386;DHT22;47256;18.904;-99.054;2022-10-18T01:22:43;27.20;93.10
61386;DHT22;47256;18.904;-99.054;2022-10-18T01:30:52;27.20;93.90
61386;DHT22;47256;18.904;-99.054;2022-10-18T01:33:42;27.20;93.40
61386;DHT22;47256;18.904;-99.054;2022-10-18T01:36:43;27.30;93.50
61386;DHT22;47256;18.904;-99.054;2022-10-18T01:39:15;27.20;93.30
61386;DHT22;47256;18.904;-99.054;2022-10-18T01:41:46;27.20;92.70
61386;DHT22;47256;18.904;-99.054;2022-10-18T01:44:20;27.20;92.80
61386;DHT22;47256;18.904;-99.054;2022-10-18T01:46:52;27.20;93.10
61386;DHT22;47256;18.904;-99.054;2022-10-18T01:49:27;27.20;93.30
61386;DHT22;47256;18.904;-99.054;2022-10-18T01:51:55;27.20;93.40
61386;DHT22;47256;18.904;-99.054;2022-10-18T01:54:46;27.20;93.10
61386;DHT22;47256;18.904;-99.054;2022-10-18T01:57:22;27.20;93.30
61386;DHT22;47256;18.904;-99.054;2022-10-18T02:00:21;27.20;93.60
61386;DHT22;47256;18.904;-99.054;2022-10-18T02:06:27;27.00;93.40
61386;DHT22;47256;18.904;-99.054;2022-10-18T02:11:30;27.00;93.80
61386;DHT22;47256;18.904;-99.054;2022-10-18T02:14:05;27.00;93.70
61386;DHT22;47256;18.904;-99.054;2022-10-18T02:16:38;27.10;93.60
61386;DHT22;47256;18.904;-99.054;2022-10-18T02:19:22;27.10;94.20
61386;DHT22;47256;18.904;-99.054;2022-10-18T02:21:54;27.10;94.10
61386;DHT22;47256;18.904;-99.054;2022-10-18T02:24:33;27.00;94.20
61386;DHT22;47256;18.904;-99.054;2022-10-18T02:27:03;27.00;94.30
61386;DHT22;47256;18.904;-99.054;2022-10-18T02:29:35;27.10;94.30
61386;DHT22;47256;18.904;-99.054;2022-10-18T02:35:23;27.10;94.30
61386;DHT22;47256;18.904;-99.054;2022-10-18T02:37:55;27.00;94.30
61386;DHT22;47256;18.904;-99.054;2022-10-18T02:40:26;27.00;94.60
61386;DHT22;47256;18.904;-99.054;2022-10-18T02:42:55;27.00;94.70
61386;DHT22;47256;18.904;-99.054;2022-10-18T02:45:24;27.00;94.60
61386;DHT22;47256;18.904;-99.054;2022-10-18T02:47:53;26.90;94.90
61386;DHT22;47256;18.904;-99.054;2022-10-18T02:50:23;26.90;94.70
61386;DHT22;47256;18.904;-99.054;2022-10-18T02:52:52;26.80;94.40
61386;DHT22;47256;18.904;-99.054;2022-10-18T02:55:21;26.80;94.40
61386;DHT22;47256;18.904;-99.054;2022-10-18T02:57:50;26.80;94.50
61386;DHT22;47256;18.904;-99.054;2022-10-18T03:00:18;26.70;94.60
61386;DHT22;47256;18.904;-99.054;2022-10-18T03:02:48;26.70;94.90
61386;DHT22;47256;18.904;-99.054;2022-10-18T03:05:17;26.70;94.90
61386;DHT22;47256;18.904;-99.054;2022-10-18T03:07:45;26.70;95.00
61386;DHT22;47256;18.904;-99.054;2022-10-18T03:10:13;26.70;95.10
61386;DHT22;47256;18.904;-99.054;2022-10-18T03:12:41;26.70;95.20
61386;DHT22;47256;18.904;-99.054;2022-10-18T03:15:10;26.70;95.20
61386;DHT22;47256;18.904;-99.054;2022-10-18T03:17:39;26.70;95.40
61386;DHT22;47256;18.904;-99.054;2022-10-18T03:20:07;26.60;95.40
61386;DHT22;47256;18.904;-99.054;2022-10-18T03:22:35;26.60;95.20
61386;DHT22;47256;18.904;-99.054;2022-10-18T03:25:03;26.50;95.00
61386;DHT22;47256;18.904;-99.054;2022-10-18T03:27:31;26.50;94.50
61386;DHT22;47256;18.904;-99.054;2022-10-18T03:29:58;26.50;93.80
61386;DHT22;47256;18.904;-99.054;2022-10-18T03:32:26;26.50;94.30
61386;DHT22;47256;18.904;-99.054;2022-10-18T03:34:54;26.50;94.70
61386;DHT22;47256;18.904;-99.054;2022-10-18T03:37:22;26.50;94.80
61386;DHT22;47256;18.904;-99.054;2022-10-18T03:39:50;26.50;95.10
61386;DHT22;47256;18.904;-99.054;2022-10-18T03:42:17;26.50;96.40
61386;DHT22;47256;18.904;-99.054;2022-10-18T03:44:45;26.40;96.90
61386;DHT22;47256;18.904;-99.054;2022-10-18T03:47:12;26.20;98.00
61386;DHT22;47256;18.904;-99.054;2022-10-18T03:49:40;26.10;97.90
61386;DHT22;47256;18.904;-99.054;2022-10-18T03:52:08;25.90;97.80
61386;DHT22;47256;18.904;-99.054;2022-10-18T03:54:36;25.80;97.90
61386;DHT22;47256;18.904;-99.054;2022-10-18T03:57:04;25.70;98.80
61386;DHT22;47256;18.904;-99.054;2022-10-18T03:59:32;25.60;99.10
61386;DHT22;47256;18.904;-99.054;2022-10-18T04:01:59;25.40;99.40
61386;DHT22;47256;18.904;-99.054;2022-10-18T04:04:26;25.30;99.40
61386;DHT22;47256;18.904;-99.054;2022-10-18T04:06:55;25.20;99.90
61386;DHT22;47256;18.904;-99.054;2022-10-18T04:09:22;25.00;99.90
61386;DHT22;47256;18.904;-99.054;2022-10-18T04:11:50;25.00;99.90
61386;DHT22;47256;18.904;-99.054;2022-10-18T04:14:18;24.90;99.90
61386;DHT22;47256;18.904;-99.054;2022-10-18T04:16:47;25.00;99.90
61386;DHT22;47256;18.904;-99.054;2022-10-18T04:25:04;24.70;99.40
61386;DHT22;47256;18.904;-99.054;2022-10-18T04:27:36;23.30;99.90
61386;DHT22;47256;18.904;-99.054;2022-10-18T04:32:25;20.10;99.90
61386;DHT22;47256;18.904;-99.054;2022-10-18T04:34:55;19.50;99.90
61386;DHT22;47256;18.904;-99.054;2022-10-18T04:37:22;19.30;99.90
61386;DHT22;47256;18.904;-99.054;2022-10-18T04:39:51;19.20;99.90
61386;DHT22;47256;18.904;-99.054;2022-10-18T04:42:18;19.20;99.90
61386;DHT22;47256;18.904;-99.054;2022-10-18T04:44:45;19.10;99.90
61386;DHT22;47256;18.904;-99.054;2022-10-18T04:47:12;19.20;99.90
61386;DHT22;47256;18.904;-99.054;2022-10-18T04:49:40;19.50;99.90
61386;DHT22;47256;18.904;-99.054;2022-10-18T04:52:07;19.80;99.90
61386;DHT22;47256;18.904;-99.054;2022-10-18T04:54:35;20.10;99.90
61386;DHT22;47256;18.904;-99.054;2022-10-18T04:57:02;20.40;99.90
61386;DHT22;47256;18.904;-99.054;2022-10-18T04:59:29;20.70;99.90
61386;DHT22;47256;18.904;-99.054;2022-10-18T05:01:56;20.90;99.90
61386;DHT22;47256;18.904;-99.054;2022-10-18T05:04:31;21.10;99.90
61386;DHT22;47256;18.904;-99.054;2022-10-18T05:06:58;21.30;99.90
61386;DHT22;47256;18.904;-99.054;2022-10-18T05:09:26;21.30;99.90
61386;DHT22;47256;18.904;-99.054;2022-10-18T05:11:53;21.40;99.90
61386;DHT22;47256;18.904;-99.054;2022-10-18T05:14:20;21.50;99.90
61386;DHT22;47256;18.904;-99.054;2022-10-18T05:16:47;21.60;99.90
61386;DHT22;47256;18.904;-99.054;2022-10-18T05:19:14;21.60;99.90
61386;DHT22;47256;18.904;-99.054;2022-10-18T05:21:42;21.70;99.90
61386;DHT22;47256;18.904;-99.054;2022-10-18T05:24:10;21.70;99.90
61386;DHT22;47256;18.904;-99.054;2022-10-18T05:26:42;21.70;99.90
61386;DHT22;47256;18.904;-99.054;2022-10-18T05:29:09;21.70;99.90
61386;DHT22;47256;18.904;-99.054;2022-10-18T05:31:37;21.60;99.90
61386;DHT22;47256;18.904;-99.054;2022-10-18T05:34:03;21.50;99.90
61386;DHT22;47256;18.904;-99.054;2022-10-18T05:36:34;21.60;99.90
61386;DHT22;47256;18.904;-99.054;2022-10-18T05:39:04;21.50;99.90
61386;DHT22;47256;18.904;-99.054;2022-10-18T05:41:32;21.50;99.90
61386;DHT22;47256;18.904;-99.054;2022-10-18T05:44:03;21.60;99.90
61386;DHT22;47256;18.904;-99.054;2022-10-18T05:46:34;21.60;99.90
61386;DHT22;47256;18.904;-99.054;2022-10-18T05:49:01;21.60;99.90
61386;DHT22;47256;18.904;-99.054;2022-10-18T05:51:30;21.70;99.90
61386;DHT22;47256;18.904;-99.054;2022-10-18T05:53:57;21.70;99.90
61386;DHT22;47256;18.904;-99.054;2022-10-18T05:56:26;21.70;99.90
61386;DHT22;47256;18.904;-99.054;2022-10-18T05:58:52;21.70;99.90
61386;DHT22;47256;18.904;-99.054;2022-10-18T06:01:20;21.70;99.90
61386;DHT22;47256;18.904;-99.054;2022-10-18T06:03:47;21.70;99.90
61386;DHT22;47256;18.904;-99.054;2022-10-18T06:06:14;21.70;99.90
61386;DHT22;47256;18.904;-99.054;2022-10-18T06:08:43;21.80;99.90
61386;DHT22;47256;18.904;-99.054;2022-10-18T06:11:12;21.80;99.90
61386;DHT22;47256;18.904;-99.054;2022-10-18T06:13:45;21.80;99.90
61386;DHT22;47256;18.904;-99.054;2022-10-18T06:16:16;21.80;99.90
61386;DHT22;47256;18.904;-99.054;2022-10-18T06:18:47;21.90;99.90
61386;DHT22;47256;18.904;-99.054;2022-10-18T06:21:19;21.90;99.90
61386;DHT22;47256;18.904;-99.054;2022-10-18T06:23:54;21.80;99.90
61386;DHT22;47256;18.904;-99.054;2022-10-18T06:26:23;21.80;99.90
61386;DHT22;47256;18.904;-99.054;2022-10-18T06:28:50;21.80;99.90
61386;DHT22;47256;18.904;-99.054;2022-10-18T06:31:18;21.80;99.90
61386;DHT22;47256;18.904;-99.054;2022-10-18T06:33:49;21.90;99.90
61386;DHT22;47256;18.904;-99.054;2022-10-18T06:36:18;21.80;99.90
61386;DHT22;47256;18.904;-99.054;2022-10-18T06:38:48;21.60;99.90
61386;DHT22;47256;18.904;-99.054;2022-10-18T06:41:15;21.60;99.90
61386;DHT22;47256;18.904;-99.054;2022-10-18T06:43:42;21.60;99.90
61386;DHT22;47256;18.904;-99.054;2022-10-18T06:46:10;21.70;99.90
61386;DHT22;47256;18.904;-99.054;2022-10-18T06:48:38;21.70;99.90
61386;DHT22;47256;18.904;-99.054;2022-10-18T06:51:06;21.70;99.90
61386;DHT22;47256;18.904;-99.054;2022-10-18T06:53:36;21.70;99.90
61386;DHT22;47256;18.904;-99.054;2022-10-18T06:56:06;21.70;99.90
61386;DHT22;47256;18.904;-99.054;2022-10-18T06:58:34;21.60;99.90
61386;DHT22;47256;18.904;-99.054;2022-10-18T07:01:11;21.70;99.90
61386;DHT22;47256;18.904;-99.054;2022-10-18T07:03:38;21.80;99.90
61386;DHT22;47256;18.904;-99.054;2022-10-18T07:06:09;21.80;99.90
61386;DHT22;47256;18.904;-99.054;2022-10-18T07:08:37;21.80;99.90
61386;DHT22;47256;18.904;-99.054;2022-10-18T07:11:07;21.70;99.90
61386;DHT22;47256;18.904;-99.054;2022-10-18T07:13:36;21.70;99.90
61386;DHT22;47256;18.904;-99.054;2022-10-18T07:16:08;21.70;99.90
61386;DHT22;47256;18.904;-99.054;2022-10-18T07:18:38;21.50;99.90
61386;DHT22;47256;18.904;-99.054;2022-10-18T07:21:07;21.40;99.90
61386;DHT22;47256;18.904;-99.054;2022-10-18T07:23:38;21.40;99.90
61386;DHT22;47256;18.904;-99.054;2022-10-18T07:26:29;21.50;99.90
61386;DHT22;47256;18.904;-99.054;2022-10-18T07:29:04;21.50;99.90
61386;DHT22;47256;18.904;-99.054;2022-10-18T07:31:33;21.30;99.90
61386;DHT22;47256;18.904;-99.054;2022-10-18T07:34:07;21.20;99.90
61386;DHT22;47256;18.904;-99.054;2022-10-18T07:36:36;21.20;99.90
61386;DHT22;47256;18.904;-99.054;2022-10-18T07:39:06;21.20;99.90
61386;DHT22;47256;18.904;-99.054;2022-10-18T07:41:34;21.30;99.90
61386;DHT22;47256;18.904;-99.054;2022-10-18T07:44:03;21.40;99.90
61386;DHT22;47256;18.904;-99.054;2022-10-18T07:46:30;21.30;99.90
61386;DHT22;47256;18.904;-99.054;2022-10-18T07:48:58;21.10;99.90
61386;DHT22;47256;18.904;-99.054;2022-10-18T07:51:26;21.00;99.90
61386;DHT22;47256;18.904;-99.054;2022-10-18T07:53:53;21.10;99.90
61386;DHT22;47256;18.904;-99.054;2022-10-18T07:56:20;21.10;99.90
61386;DHT22;47256;18.904;-99.054;2022-10-18T07:58:50;21.10;99.90
61386;DHT22;47256;18.904;-99.054;2022-10-18T08:01:19;21.00;99.90
61386;DHT22;47256;18.904;-99.054;2022-10-18T08:03:46;21.00;99.90
61386;DHT22;47256;18.904;-99.054;2022-10-18T08:06:17;21.10;99.90
61386;DHT22;47256;18.904;-99.054;2022-10-18T08:08:44;21.20;99.90
61386;DHT22;47256;18.904;-99.054;2022-10-18T08:11:20;21.20;99.90
61386;DHT22;47256;18.904;-99.054;2022-10-18T08:13:50;21.30;99.90
61386;DHT22;47256;18.904;-99.054;2022-10-18T08:16:23;21.30;99.90
61386;DHT22;47256;18.904;-99.054;2022-10-18T08:18:51;21.30;99.90
61386;DHT22;47256;18.904;-99.054;2022-10-18T08:21:19;21.40;99.90
61386;DHT22;47256;18.904;-99.054;2022-10-18T08:23:49;21.20;99.90
61386;DHT22;47256;18.904;-99.054;2022-10-18T08:26:19;21.10;99.90
61386;DHT22;47256;18.904;-99.054;2022-10-18T08:28:46;21.10;99.90
61386;DHT22;47256;18.904;-99.054;2022-10-18T08:31:15;21.20;99.90
61386;DHT22;47256;18.904;-99.054;2022-10-18T08:33:43;21.20;99.90
61386;DHT22;47256;18.904;-99.054;2022-10-18T08:36:14;21.30;99.90
61386;DHT22;47256;18.904;-99.054;2022-10-18T08:38:43;21.30;99.90
61386;DHT22;47256;18.904;-99.054;2022-10-18T08:41:17;21.20;99.90
61386;DHT22;47256;18.904;-99.054;2022-10-18T08:44:23;21.20;99.90
61386;DHT22;47256;18.904;-99.054;2022-10-18T08:46:59;21.30;99.90
61386;DHT22;47256;18.904;-99.054;2022-10-18T08:49:41;21.40;99.90
61386;DHT22;47256;18.904;-99.054;2022-10-18T08:52:43;21.30;99.90
61386;DHT22;47256;18.904;-99.054;2022-10-18T08:55:41;21.30;99.90
61386;DHT22;47256;18.904;-99.054;2022-10-18T08:58:26;21.20;99.90
61386;DHT22;47256;18.904;-99.054;2022-10-18T09:06:58;21.30;99.90
61386;DHT22;47256;18.904;-99.054;2022-10-18T09:09:43;21.40;99.90
61386;DHT22;47256;18.904;-99.054;2022-10-18T09:15:28;21.50;99.90
61386;DHT22;47256;18.904;-99.054;2022-10-18T09:20:57;21.50;99.90
61386;DHT22;47256;18.904;-99.054;2022-10-18T09:34:51;21.10;99.90
61386;DHT22;47256;18.904;-99.054;2022-10-18T09:37:20;21.10;99.90
61386;DHT22;47256;18.904;-99.054;2022-10-18T09:39:49;21.20;99.90
61386;DHT22;47256;18.904;-99.054;2022-10-18T09:42:33;21.30;99.90
61386;DHT22;47256;18.904;-99.054;2022-10-18T09:45:29;21.20;99.90
61386;DHT22;47256;18.904;-99.054;2022-10-18T09:51:02;21.20;99.90
61386;DHT22;47256;18.904;-99.054;2022-10-18T09:56:21;21.10;99.90
61386;DHT22;47256;18.904;-99.054;2022-10-18T09:58:50;21.10;99.90
61386;DHT22;47256;18.904;-99.054;2022-10-18T10:01:29;21.20;99.90
61386;DHT22;47256;18.904;-99.054;2022-10-18T10:04:03;21.20;99.90
61386;DHT22;47256;18.904;-99.054;2022-10-18T10:06:31;21.20;99.90
61386;DHT22;47256;18.904;-99.054;2022-10-18T10:09:14;21.30;99.90
61386;DHT22;47256;18.904;-99.054;2022-10-18T10:11:48;21.20;99.90
61386;DHT22;47256;18.904;-99.054;2022-10-18T10:14:27;21.30;99.90
61386;DHT22;47256;18.904;-99.054;2022-10-18T10:17:20;21.20;99.90
61386;DHT22;47256;18.904;-99.054;2022-10-18T10:19:59;21.20;99.90
61386;DHT22;47256;18.904;-99.054;2022-10-18T10:22:40;21.20;99.90
61386;DHT22;47256;18.904;-99.054;2022-10-18T10:27:47;21.20;99.90
61386;DHT22;47256;18.904;-99.054;2022-10-18T10:30:34;21.20;99.90
61386;DHT22;47256;18.904;-99.054;2022-10-18T10:33:03;21.30;99.90
61386;DHT22;47256;18.904;-99.054;2022-10-18T10:35:39;21.30;99.90
61386;DHT22;47256;18.904;-99.054;2022-10-18T10:38:22;21.30;99.90
61386;DHT22;47256;18.904;-99.054;2022-10-18T10:40:51;21.30;99.90
61386;DHT22;47256;18.904;-99.054;2022-10-18T10:48:53;21.30;99.90
61386;DHT22;47256;18.904;-99.054;2022-10-18T10:51:29;21.30;99.90
61386;DHT22;47256;18.904;-99.054;2022-10-18T10:53:57;21.30;99.90
61386;DHT22;47256;18.904;-99.054;2022-10-18T10:56:27;21.20;99.90
61386;DHT22;47256;18.904;-99.054;2022-10-18T10:59:00;21.20;99.90
61386;DHT22;47256;18.904;-99.054;2022-10-18T11:01:32;21.20;99.90
61386;DHT22;47256;18.904;-99.054;2022-10-18T11:04:02;21.20;99.90
61386;DHT22;47256;18.904;-99.054;2022-10-18T11:07:01;21.20;99.90
61386;DHT22;47256;18.904;-99.054;2022-10-18T11:15:02;21.30;99.90
61386;DHT22;47256;18.904;-99.054;2022-10-18T11:20:15;21.20;99.90
61386;DHT22;47256;18.904;-99.054;2022-10-18T11:23:56;21.20;99.90
61386;DHT22;47256;18.904;-99.054;2022-10-18T11:31:59;21.10;99.90
61386;DHT22;47256;18.904;-99.054;2022-10-18T11:35:27;21.10;99.90
61386;DHT22;47256;18.904;-99.054;2022-10-18T11:37:51;21.10;99.90
61386;DHT22;47256;18.904;-99.054;2022-10-18T12:03:25;20.90;99.90
61386;DHT22;47256;18.904;-99.054;2022-10-18T12:05:55;20.90;99.90
61386;DHT22;47256;18.904;-99.054;2022-10-18T12:08:32;20.90;99.90
61386;DHT22;47256;18.904;-99.054;2022-10-18T12:11:05;20.90;99.90
61386;DHT22;47256;18.904;-99.054;2022-10-18T12:13:56;20.90;99.90
61386;DHT22;47256;18.904;-99.054;2022-10-18T12:16:28;20.90;99.90
61386;DHT22;47256;18.904;-99.054;2022-10-18T12:19:03;21.00;99.90
61386;DHT22;47256;18.904;-99.054;2022-10-18T12:21:34;20.90;99.90
61386;DHT22;47256;18.904;-99.054;2022-10-18T12:24:10;20.70;99.90
61386;DHT22;47256;18.904;-99.054;2022-10-18T12:26:40;20.70;99.90
61386;DHT22;47256;18.904;-99.054;2022-10-18T12:29:30;20.80;99.90
61386;DHT22;47256;18.904;-99.054;2022-10-18T12:32:09;20.90;99.90
61386;DHT22;47256;18.904;-99.054;2022-10-18T12:34:56;20.80;99.90
61386;DHT22;47256;18.904;-99.054;2022-10-18T12:40:43;20.80;99.90
61386;DHT22;47256;18.904;-99.054;2022-10-18T12:42:47;20.80;99.90
61386;DHT22;47256;18.904;-99.054;2022-10-18T12:45:29;20.80;99.90
61386;DHT22;47256;18.904;-99.054;2022-10-18T12:48:06;20.90;99.90
61386;DHT22;47256;18.904;-99.054;2022-10-18T12:50:39;20.90;99.90
61386;DHT22;47256;18.904;-99.054;2022-10-18T12:53:24;20.80;99.90
61386;DHT22;47256;18.904;-99.054;2022-10-18T12:55:54;20.90;99.90
61386;DHT22;47256;18.904;-99.054;2022-10-18T12:58:23;20.90;99.90
61386;DHT22;47256;18.904;-99.054;2022-10-18T13:01:02;20.80;99.90
61386;DHT22;47256;18.904;-99.054;2022-10-18T13:03:49;20.80;99.90
61386;DHT22;47256;18.904;-99.054;2022-10-18T13:06:17;20.80;99.90
61386;DHT22;47256;18.904;-99.054;2022-10-18T13:08:52;20.80;99.90
61386;DHT22;47256;18.904;-99.054;2022-10-18T13:11:35;20.80;99.90
61386;DHT22;47256;18.904;-99.054;2022-10-18T13:19:58;20.90;99.90
61386;DHT22;47256;18.904;-99.054;2022-10-18T13:33:38;20.80;99.90
61386;DHT22;47256;18.904;-99.054;2022-10-18T13:41:27;20.70;99.90
61386;DHT22;47256;18.904;-99.054;2022-10-18T13:44:30;20.80;99.90
61386;DHT22;47256;18.904;-99.054;2022-10-18T13:49:57;20.70;99.90
61386;DHT22;47256;18.904;-99.054;2022-10-18T13:58:15;20.70;99.90
61386;DHT22;47256;18.904;-99.054;2022-10-18T14:04:12;20.70;99.90
61386;DHT22;47256;18.904;-99.054;2022-10-18T14:06:47;20.70;99.90
61386;DHT22;47256;18.904;-99.054;2022-10-18T14:09:25;20.70;99.90
61386;DHT22;47256;18.904;-99.054;2022-10-18T14:14:54;20.90;99.90
61386;DHT22;47256;18.904;-99.054;2022-10-18T14:20:27;20.90;99.90
61386;DHT22;47256;18.904;-99.054;2022-10-18T14:23:17;20.80;99.90
61386;DHT22;47256;18.904;-99.054;2022-10-18T14:25:48;20.80;99.90
61386;DHT22;47256;18.904;-99.054;2022-10-18T14:28:20;20.90;99.90
61386;DHT22;47256;18.904;-99.054;2022-10-18T14:30:58;20.90;99.90
61386;DHT22;47256;18.904;-99.054;2022-10-18T14:36:06;21.00;99.90
61386;DHT22;47256;18.904;-99.054;2022-10-18T14:38:55;21.10;99.90
61386;DHT22;47256;18.904;-99.054;2022-10-18T14:41:25;21.10;99.90
61386;DHT22;47256;18.904;-99.054;2022-10-18T14:49:14;21.20;99.90
61386;DHT22;47256;18.904;-99.054;2022-10-18T14:51:44;21.20;99.90
61386;DHT22;47256;18.904;-99.054;2022-10-18T14:54:28;21.30;99.90
61386;DHT22;47256;18.904;-99.054;2022-10-18T14:56:56;21.40;99.90
61386;DHT22;47256;18.904;-99.054;2022-10-18T14:59:28;21.40;99.90
61386;DHT22;47256;18.904;-99.054;2022-10-18T15:02:18;21.50;99.90
61386;DHT22;47256;18.904;-99.054;2022-10-18T15:04:53;21.60;99.90
61386;DHT22;47256;18.904;-99.054;2022-10-18T15:07:21;21.70;99.90
61386;DHT22;47256;18.904;-99.054;2022-10-18T15:09:51;21.70;99.90
61386;DHT22;47256;18.904;-99.054;2022-10-18T15:12:19;21.80;99.90
61386;DHT22;47256;18.904;-99.054;2022-10-18T15:14:47;21.80;99.90
61386;DHT22;47256;18.904;-99.054;2022-10-18T15:17:21;21.80;99.90
61386;DHT22;47256;18.904;-99.054;2022-10-18T15:20:28;21.90;99.90
61386;DHT22;47256;18.904;-99.054;2022-10-18T15:25:46;21.80;99.90
61386;DHT22;47256;18.904;-99.054;2022-10-18T15:28:45;21.90;99.90
61386;DHT22;47256;18.904;-99.054;2022-10-18T15:31:33;21.90;99.90
61386;DHT22;47256;18.904;-99.054;2022-10-18T15:34:23;21.80;99.90
61386;DHT22;47256;18.904;-99.054;2022-10-18T15:36:54;21.90;99.90
61386;DHT22;47256;18.904;-99.054;2022-10-18T15:39:25;22.00;99.90
61386;DHT22;47256;18.904;-99.054;2022-10-18T15:42:01;22.10;99.90
61386;DHT22;47256;18.904;-99.054;2022-10-18T15:44:46;22.20;99.90
61386;DHT22;47256;18.904;-99.054;2022-10-18T15:47:17;22.30;99.90
61386;DHT22;47256;18.904;-99.054;2022-10-18T15:49:53;22.40;99.90
61386;DHT22;47256;18.904;-99.054;2022-10-18T15:52:35;22.50;99.90
61386;DHT22;47256;18.904;-99.054;2022-10-18T15:58:15;22.60;99.90
61386;DHT22;47256;18.904;-99.054;2022-10-18T16:00:44;22.70;99.90
61386;DHT22;47256;18.904;-99.054;2022-10-18T16:03:13;22.80;99.90
61386;DHT22;47256;18.904;-99.054;2022-10-18T16:05:43;23.00;99.90
61386;DHT22;47256;18.904;-99.054;2022-10-18T16:08:26;23.00;99.90
61386;DHT22;47256;18.904;-99.054;2022-10-18T16:10:57;23.10;99.90
61386;DHT22;47256;18.904;-99.054;2022-10-18T16:13:25;23.20;99.90
61386;DHT22;47256;18.904;-99.054;2022-10-18T16:15:53;23.30;99.90
61386;DHT22;47256;18.904;-99.054;2022-10-18T16:18:23;23.20;99.90
61386;DHT22;47256;18.904;-99.054;2022-10-18T16:20:51;23.20;99.90
61386;DHT22;47256;18.904;-99.054;2022-10-18T16:23:26;23.20;99.90
61386;DHT22;47256;18.904;-99.054;2022-10-18T16:25:58;23.10;99.90
61386;DHT22;47256;18.904;-99.054;2022-10-18T16:28:26;23.20;99.90
61386;DHT22;47256;18.904;-99.054;2022-10-18T16:30:59;23.40;99.90
61386;DHT22;47256;18.904;-99.054;2022-10-18T16:33:28;23.50;99.90
61386;DHT22;47256;18.904;-99.054;2022-10-18T16:35:56;23.70;99.90
61386;DHT22;47256;18.904;-99.054;2022-10-18T16:38:31;23.90;99.90
61386;DHT22;47256;18.904;-99.054;2022-10-18T16:41:00;24.00;99.90
61386;DHT22;47256;18.904;-99.054;2022-10-18T16:43:27;24.10;99.90
61386;DHT22;47256;18.904;-99.054;2022-10-18T16:45:54;24.20;99.90
61386;DHT22;47256;18.904;-99.054;2022-10-18T16:48:23;24.40;99.90
61386;DHT22;47256;18.904;-99.054;2022-10-18T16:50:54;24.60;99.90
61386;DHT22;47256;18.904;-99.054;2022-10-18T16:53:22;24.90;99.90
61386;DHT22;47256;18.904;-99.054;2022-10-18T16:56:00;25.00;99.90
61386;DHT22;47256;18.904;-99.054;2022-10-18T16:58:30;25.30;99.90
61386;DHT22;47256;18.904;-99.054;2022-10-18T17:01:02;25.40;99.90
61386;DHT22;47256;18.904;-99.054;2022-10-18T17:03:31;25.70;99.90
61386;DHT22;47256;18.904;-99.054;2022-10-18T17:05:59;25.80;99.90
61386;DHT22;47256;18.904;-99.054;2022-10-18T17:08:27;25.70;99.90
61386;DHT22;47256;18.904;-99.054;2022-10-18T17:10:57;25.60;99.90
61386;DHT22;47256;18.904;-99.054;2022-10-18T17:13:25;25.60;99.90
61386;DHT22;47256;18.904;-99.054;2022-10-18T17:15:54;25.60;99.90
61386;DHT22;47256;18.904;-99.054;2022-10-18T17:18:23;25.70;99.90
61386;DHT22;47256;18.904;-99.054;2022-10-18T17:20:53;25.70;99.90
61386;DHT22;47256;18.904;-99.054;2022-10-18T17:23:21;25.70;99.90
61386;DHT22;47256;18.904;-99.054;2022-10-18T17:25:48;25.70;99.90
61386;DHT22;47256;18.904;-99.054;2022-10-18T17:28:17;25.60;99.90
61386;DHT22;47256;18.904;-99.054;2022-10-18T17:30:45;25.60;99.90
61386;DHT22;47256;18.904;-99.054;2022-10-18T17:33:13;25.60;99.90
61386;DHT22;47256;18.904;-99.054;2022-10-18T17:35:41;25.60;99.90
61386;DHT22;47256;18.904;-99.054;2022-10-18T17:38:09;25.60;99.90
61386;DHT22;47256;18.904;-99.054;2022-10-18T17:40:39;25.60;99.90
61386;DHT22;47256;18.904;-99.054;2022-10-18T17:43:06;25.60;99.90
61386;DHT22;47256;18.904;-99.054;2022-10-18T17:45:34;25.50;99.90
61386;DHT22;47256;18.904;-99.054;2022-10-18T17:48:05;25.40;99.90
61386;DHT22;47256;18.904;-99.054;2022-10-18T17:50:33;25.40;99.90
61386;DHT22;47256;18.904;-99.054;2022-10-18T17:53:01;25.40;99.90
61386;DHT22;47256;18.904;-99.054;2022-10-18T17:55:28;25.50;99.90
61386;DHT22;47256;18.904;-99.054;2022-10-18T17:57:57;25.50;99.90
61386;DHT22;47256;18.904;-99.054;2022-10-18T18:00:25;25.70;99.90
61386;DHT22;47256;18.904;-99.054;2022-10-18T18:02:58;25.90;99.90
61386;DHT22;47256;18.904;-99.054;2022-10-18T18:05:31;26.10;99.90
61386;DHT22;47256;18.904;-99.054;2022-10-18T18:08:00;26.20;99.90
61386;DHT22;47256;18.904;-99.054;2022-10-18T18:10:27;26.20;99.90
61386;DHT22;47256;18.904;-99.054;2022-10-18T18:12:55;26.30;99.90
61386;DHT22;47256;18.904;-99.054;2022-10-18T18:15:23;26.40;99.90
61386;DHT22;47256;18.904;-99.054;2022-10-18T18:17:50;26.60;99.90
61386;DHT22;47256;18.904;-99.054;2022-10-18T18:20:17;26.80;99.90